Etusivu
METAR-TAF:

METAR-TAF

Lentoasemat :

Bromman lentoasema

Tukholma, Ruotsi

Leveyspiiri: 59-21N, Pituuspiiri: 017-57E, korkeus merenpinnasta: 14 m

Tämänhetkinen sää

Tämä raportti tehtiin 33 minuuttia sitten, kello 20.20 UTC
Tuuli 5 kn lounaasta
Lämpötila 15°C
Kosteus 55%
Ilmanpaine 1007 hPa
Näkyvyys 10 km tai enemmän

METAR: ESSB 032020Z AUTO 23005KT 9999 NCD 15/06 Q1007

Aika: 22:53 (20:53 UTC)

Sääennuste

Tämä raportti tehtiin 23 minuuttia sitten, kello 20.30 UTC
Ennuste voimassa 03. päivästä klo 21 UTC - 04. päivään klo 06 UTC
Tuuli 5 kn lounaasta
Näkyvyys 10 km tai enemmän
ei pilviä alle 1500 m:ssä eikä cumulonimbus-pilviä
Tulossa
04. päivästä klo 03 UTC - 04. päivään klo 05 UTC
sadetta

TAF: ESSB 032030Z 0321/0406 22005KT CAVOK BECMG 0403/0405 RA

Säähavainnot ja -ennusteet yli 4000 lentoasemalta (METAR- ja TAF-raportit).

Käytössä olevat sääasemat on merkitty karttaan keltaisilla ja punaisilla pisteillä.

Aseta hiiri pisteen päälle nähdäksesi sääaseman nimen.

Klikkaa sitten nähdäksesi säähavainnot ja -ennusteet.

Kartan vaihtaminen: klikkaa mustalla rastilla varustettuja vihreitä pisteitä, niin voit zoomata sisään; viivalla varustettua vihreää pistettä, niin voit zoomata ulos tai vihreitä nuolia, niin pääset viereisille kartoille.


METAR-TAF: